sensor_id;sensor_type;location;lat;lon;timestamp;pressure;altitude;pressure_sealevel;temperature;humidity
3428;BME280;1727;42.624;23.406;2023-03-13T00:00:23;95105.50;;;4.21;66.06
3428;BME280;1727;42.624;23.406;2023-03-13T00:02:49;95103.75;;;4.21;66.72
3428;BME280;1727;42.624;23.406;2023-03-13T00:05:16;95098.81;;;4.17;66.15
3428;BME280;1727;42.624;23.406;2023-03-13T00:07:44;95093.16;;;4.10;66.08
3428;BME280;1727;42.624;23.406;2023-03-13T00:10:11;95104.47;;;4.09;66.92
3428;BME280;1727;42.624;23.406;2023-03-13T00:12:38;95096.16;;;4.02;67.10
3428;BME280;1727;42.624;23.406;2023-03-13T00:15:06;95095.50;;;3.99;67.90
3428;BME280;1727;42.624;23.406;2023-03-13T00:17:33;95095.56;;;3.97;67.48
3428;BME280;1727;42.624;23.406;2023-03-13T00:19:59;95101.88;;;3.93;67.58
3428;BME280;1727;42.624;23.406;2023-03-13T00:22:27;95103.63;;;3.93;67.32
3428;BME280;1727;42.624;23.406;2023-03-13T00:24:55;95111.50;;;3.91;67.26
3428;BME280;1727;42.624;23.406;2023-03-13T00:27:23;95106.56;;;3.87;67.93
3428;BME280;1727;42.624;23.406;2023-03-13T00:29:49;95116.88;;;3.88;67.67
3428;BME280;1727;42.624;23.406;2023-03-13T00:32:16;95113.44;;;3.88;67.29
3428;BME280;1727;42.624;23.406;2023-03-13T00:34:43;95114.34;;;3.87;67.68
3428;BME280;1727;42.624;23.406;2023-03-13T00:37:10;95120.28;;;3.89;67.94
3428;BME280;1727;42.624;23.406;2023-03-13T00:39:36;95118.72;;;3.86;67.87
3428;BME280;1727;42.624;23.406;2023-03-13T00:42:05;95116.78;;;3.90;67.85
3428;BME280;1727;42.624;23.406;2023-03-13T00:44:32;95119.53;;;3.87;67.88
3428;BME280;1727;42.624;23.406;2023-03-13T00:46:59;95113.59;;;3.85;67.97
3428;BME280;1727;42.624;23.406;2023-03-13T00:49:25;95122.31;;;3.84;68.02
3428;BME280;1727;42.624;23.406;2023-03-13T00:51:52;95113.84;;;3.80;67.97
3428;BME280;1727;42.624;23.406;2023-03-13T00:54:19;95116.09;;;3.70;68.32
3428;BME280;1727;42.624;23.406;2023-03-13T00:56:46;95120.63;;;3.67;68.42
3428;BME280;1727;42.624;23.406;2023-03-13T00:59:14;95110.50;;;3.62;68.79
3428;BME280;1727;42.624;23.406;2023-03-13T01:01:41;95119.94;;;3.63;68.25
3428;BME280;1727;42.624;23.406;2023-03-13T01:04:10;95118.19;;;3.64;68.98
3428;BME280;1727;42.624;23.406;2023-03-13T01:06:38;95120.03;;;3.62;68.48
3428;BME280;1727;42.624;23.406;2023-03-13T01:09:08;95124.47;;;3.60;68.38
3428;BME280;1727;42.624;23.406;2023-03-13T01:11:37;95128.31;;;3.53;68.76
3428;BME280;1727;42.624;23.406;2023-03-13T01:14:06;95119.72;;;3.52;68.25
3428;BME280;1727;42.624;23.406;2023-03-13T01:16:36;95120.53;;;3.53;68.74
3428;BME280;1727;42.624;23.406;2023-03-13T01:19:04;95123.81;;;3.56;68.24
3428;BME280;1727;42.624;23.406;2023-03-13T01:21:31;95122.97;;;3.56;68.25
3428;BME280;1727;42.624;23.406;2023-03-13T01:23:58;95115.78;;;3.61;68.56
3428;BME280;1727;42.624;23.406;2023-03-13T01:26:26;95119.19;;;3.61;68.04
3428;BME280;1727;42.624;23.406;2023-03-13T01:28:53;95123.88;;;3.55;68.11
3428;BME280;1727;42.624;23.406;2023-03-13T01:31:21;95117.78;;;3.56;68.73
3428;BME280;1727;42.624;23.406;2023-03-13T01:33:51;95127.16;;;3.58;68.09
3428;BME280;1727;42.624;23.406;2023-03-13T01:36:19;95121.22;;;3.56;68.09
3428;BME280;1727;42.624;23.406;2023-03-13T01:38:47;95129.41;;;3.49;68.28
3428;BME280;1727;42.624;23.406;2023-03-13T01:41:14;95127.28;;;3.39;68.25
3428;BME280;1727;42.624;23.406;2023-03-13T01:43:43;95123.19;;;3.35;68.41
3428;BME280;1727;42.624;23.406;2023-03-13T01:46:12;95135.41;;;3.33;68.68
3428;BME280;1727;42.624;23.406;2023-03-13T01:48:44;95134.63;;;3.31;68.20
3428;BME280;1727;42.624;23.406;2023-03-13T01:51:18;95141.75;;;3.28;68.82
3428;BME280;1727;42.624;23.406;2023-03-13T01:53:48;95139.22;;;3.26;69.50
3428;BME280;1727;42.624;23.406;2023-03-13T01:56:20;95144.44;;;3.26;69.78
3428;BME280;1727;42.624;23.406;2023-03-13T01:58:49;95146.19;;;3.26;69.11
3428;BME280;1727;42.624;23.406;2023-03-13T02:01:18;95153.03;;;3.27;70.04
3428;BME280;1727;42.624;23.406;2023-03-13T02:03:47;95147.19;;;3.23;69.78
3428;BME280;1727;42.624;23.406;2023-03-13T02:06:16;95141.41;;;3.18;70.29
3428;BME280;1727;42.624;23.406;2023-03-13T02:08:47;95135.34;;;3.18;69.67
3428;BME280;1727;42.624;23.406;2023-03-13T02:11:23;95146.97;;;3.10;69.60
3428;BME280;1727;42.624;23.406;2023-03-13T02:13:52;95148.56;;;3.13;69.66
3428;BME280;1727;42.624;23.406;2023-03-13T02:16:20;95152.16;;;3.10;69.34
3428;BME280;1727;42.624;23.406;2023-03-13T02:18:48;95140.94;;;3.10;69.48
3428;BME280;1727;42.624;23.406;2023-03-13T02:21:24;95146.97;;;3.10;69.85
3428;BME280;1727;42.624;23.406;2023-03-13T02:24:00;95151.16;;;3.13;69.53
3428;BME280;1727;42.624;23.406;2023-03-13T02:26:30;95158.63;;;3.19;69.35
3428;BME280;1727;42.624;23.406;2023-03-13T02:28:56;95154.88;;;3.25;68.42
3428;BME280;1727;42.624;23.406;2023-03-13T02:31:23;95159.06;;;3.27;68.05
3428;BME280;1727;42.624;23.406;2023-03-13T02:33:52;95165.84;;;3.30;68.49
3428;BME280;1727;42.624;23.406;2023-03-13T02:36:20;95170.09;;;3.31;67.75
3428;BME280;1727;42.624;23.406;2023-03-13T02:38:52;95174.38;;;3.32;68.15
3428;BME280;1727;42.624;23.406;2023-03-13T02:41:22;95178.81;;;3.30;68.38
3428;BME280;1727;42.624;23.406;2023-03-13T02:43:51;95177.47;;;3.23;68.98
3428;BME280;1727;42.624;23.406;2023-03-13T02:46:19;95178.59;;;3.17;68.99
3428;BME280;1727;42.624;23.406;2023-03-13T02:48:47;95186.31;;;3.19;69.26
3428;BME280;1727;42.624;23.406;2023-03-13T02:51:19;95189.75;;;3.19;69.45
3428;BME280;1727;42.624;23.406;2023-03-13T02:53:48;95198.50;;;3.17;69.89
3428;BME280;1727;42.624;23.406;2023-03-13T02:56:18;95206.59;;;3.10;69.02
3428;BME280;1727;42.624;23.406;2023-03-13T02:58:45;95207.66;;;3.06;69.01
3428;BME280;1727;42.624;23.406;2023-03-13T03:01:13;95206.13;;;3.02;69.14
3428;BME280;1727;42.624;23.406;2023-03-13T03:03:40;95201.34;;;2.95;68.88
3428;BME280;1727;42.624;23.406;2023-03-13T03:06:07;95208.97;;;2.98;69.24
3428;BME280;1727;42.624;23.406;2023-03-13T03:08:34;95203.03;;;2.96;69.22
3428;BME280;1727;42.624;23.406;2023-03-13T03:11:01;95203.09;;;2.94;69.38
3428;BME280;1727;42.624;23.406;2023-03-13T03:13:28;95208.72;;;2.85;70.14
3428;BME280;1727;42.624;23.406;2023-03-13T03:15:54;95208.28;;;2.77;70.13
3428;BME280;1727;42.624;23.406;2023-03-13T03:18:23;95207.59;;;2.73;70.72
3428;BME280;1727;42.624;23.406;2023-03-13T03:20:49;95203.41;;;2.71;70.95
3428;BME280;1727;42.624;23.406;2023-03-13T03:23:16;95212.16;;;2.68;71.38
3428;BME280;1727;42.624;23.406;2023-03-13T03:25:43;95227.56;;;2.71;71.64
3428;BME280;1727;42.624;23.406;2023-03-13T03:28:10;95228.25;;;2.75;71.24
3428;BME280;1727;42.624;23.406;2023-03-13T03:30:36;95228.09;;;2.78;71.44
3428;BME280;1727;42.624;23.406;2023-03-13T03:33:03;95234.94;;;2.79;70.78
3428;BME280;1727;42.624;23.406;2023-03-13T03:35:31;95245.16;;;2.82;70.17
3428;BME280;1727;42.624;23.406;2023-03-13T03:38:02;95239.97;;;2.82;70.74
3428;BME280;1727;42.624;23.406;2023-03-13T03:40:29;95247.00;;;2.80;70.55
3428;BME280;1727;42.624;23.406;2023-03-13T03:42:56;95253.00;;;2.80;70.85
3428;BME280;1727;42.624;23.406;2023-03-13T03:45:23;95252.63;;;2.71;70.88
3428;BME280;1727;42.624;23.406;2023-03-13T03:47:50;95246.59;;;2.70;71.62
3428;BME280;1727;42.624;23.406;2023-03-13T03:50:17;95262.22;;;2.69;71.48
3428;BME280;1727;42.624;23.406;2023-03-13T03:52:45;95265.72;;;2.68;70.87
3428;BME280;1727;42.624;23.406;2023-03-13T03:55:11;95273.50;;;2.68;71.12
3428;BME280;1727;42.624;23.406;2023-03-13T03:57:38;95275.03;;;2.72;71.06
3428;BME280;1727;42.624;23.406;2023-03-13T04:00:06;95273.22;;;2.74;70.41
3428;BME280;1727;42.624;23.406;2023-03-13T04:02:35;95286.31;;;2.71;70.17
3428;BME280;1727;42.624;23.406;2023-03-13T04:05:02;95283.09;;;2.66;69.94
3428;BME280;1727;42.624;23.406;2023-03-13T04:07:29;95285.69;;;2.66;69.84
3428;BME280;1727;42.624;23.406;2023-03-13T04:09:57;95295.00;;;2.70;69.81
3428;BME280;1727;42.624;23.406;2023-03-13T04:12:24;95289.81;;;2.70;69.56
3428;BME280;1727;42.624;23.406;2023-03-13T04:14:51;95289.19;;;2.65;69.86
3428;BME280;1727;42.624;23.406;2023-03-13T04:17:17;95300.47;;;2.64;69.92
3428;BME280;1727;42.624;23.406;2023-03-13T04:19:44;95302.50;;;2.57;69.68
3428;BME280;1727;42.624;23.406;2023-03-13T04:22:11;95309.72;;;2.51;69.84
3428;BME280;1727;42.624;23.406;2023-03-13T04:24:38;95304.81;;;2.44;70.11
3428;BME280;1727;42.624;23.406;2023-03-13T04:27:06;95304.75;;;2.46;70.53
3428;BME280;1727;42.624;23.406;2023-03-13T04:29:33;95313.78;;;2.37;71.26
3428;BME280;1727;42.624;23.406;2023-03-13T04:32:00;95319.13;;;2.34;71.01
3428;BME280;1727;42.624;23.406;2023-03-13T04:34:27;95322.81;;;2.29;71.12
3428;BME280;1727;42.624;23.406;2023-03-13T04:36:54;95317.50;;;2.32;71.38
3428;BME280;1727;42.624;23.406;2023-03-13T04:39:21;95329.59;;;2.31;71.11
3428;BME280;1727;42.624;23.406;2023-03-13T04:41:49;95333.22;;;2.27;71.35
3428;BME280;1727;42.624;23.406;2023-03-13T04:44:18;95341.13;;;2.24;71.34
3428;BME280;1727;42.624;23.406;2023-03-13T04:46:45;95346.19;;;2.27;71.30
3428;BME280;1727;42.624;23.406;2023-03-13T04:49:12;95352.88;;;2.31;70.64
3428;BME280;1727;42.624;23.406;2023-03-13T04:51:39;95350.19;;;2.34;70.87
3428;BME280;1727;42.624;23.406;2023-03-13T04:54:06;95360.25;;;2.40;70.96
3428;BME280;1727;42.624;23.406;2023-03-13T04:56:33;95359.34;;;2.41;70.41
3428;BME280;1727;42.624;23.406;2023-03-13T04:59:00;95359.44;;;2.40;70.08
3428;BME280;1727;42.624;23.406;2023-03-13T05:01:28;95357.75;;;2.39;70.28
3428;BME280;1727;42.624;23.406;2023-03-13T05:03:55;95355.94;;;2.41;70.11
3428;BME280;1727;42.624;23.406;2023-03-13T05:06:22;95360.25;;;2.40;70.82
3428;BME280;1727;42.624;23.406;2023-03-13T05:08:49;95359.63;;;2.35;71.14
3428;BME280;1727;42.624;23.406;2023-03-13T05:11:15;95360.47;;;2.36;71.05
3428;BME280;1727;42.624;23.406;2023-03-13T05:13:42;95362.94;;;2.39;70.69
3428;BME280;1727;42.624;23.406;2023-03-13T05:16:09;95373.91;;;2.44;70.94
3428;BME280;1727;42.624;23.406;2023-03-13T05:18:37;95368.59;;;2.47;70.91
3428;BME280;1727;42.624;23.406;2023-03-13T05:21:04;95369.84;;;2.57;70.25
3428;BME280;1727;42.624;23.406;2023-03-13T05:23:31;95377.59;;;2.57;70.36
3428;BME280;1727;42.624;23.406;2023-03-13T05:25:58;95380.28;;;2.56;70.44
3428;BME280;1727;42.624;23.406;2023-03-13T05:28:25;95376.78;;;2.57;70.57
3428;BME280;1727;42.624;23.406;2023-03-13T05:30:52;95379.63;;;2.88;70.56
3428;BME280;1727;42.624;23.406;2023-03-13T05:33:19;95385.25;;;3.51;69.51
3428;BME280;1727;42.624;23.406;2023-03-13T05:35:47;95384.22;;;4.39;65.58
3428;BME280;1727;42.624;23.406;2023-03-13T05:38:14;95390.72;;;5.26;62.63
3428;BME280;1727;42.624;23.406;2023-03-13T05:40:41;95392.28;;;6.04;59.19
3428;BME280;1727;42.624;23.406;2023-03-13T05:43:08;95390.09;;;6.69;57.95
3428;BME280;1727;42.624;23.406;2023-03-13T05:45:34;95391.50;;;7.43;54.95
3428;BME280;1727;42.624;23.406;2023-03-13T05:48:01;95393.22;;;8.09;53.09
3428;BME280;1727;42.624;23.406;2023-03-13T05:50:28;95393.81;;;8.65;51.08
3428;BME280;1727;42.624;23.406;2023-03-13T05:52:56;95395.88;;;8.98;48.90
3428;BME280;1727;42.624;23.406;2023-03-13T05:55:23;95387.31;;;9.20;48.58
3428;BME280;1727;42.624;23.406;2023-03-13T05:57:50;95388.13;;;9.57;47.79
3428;BME280;1727;42.624;23.406;2023-03-13T06:00:17;95390.28;;;9.87;46.73
3428;BME280;1727;42.624;23.406;2023-03-13T06:02:44;95390.97;;;10.13;45.45
3428;BME280;1727;42.624;23.406;2023-03-13T06:05:11;95399.59;;;10.26;45.10
3428;BME280;1727;42.624;23.406;2023-03-13T06:07:38;95411.78;;;10.38;44.91
3428;BME280;1727;42.624;23.406;2023-03-13T06:10:06;95408.25;;;10.50;45.22
3428;BME280;1727;42.624;23.406;2023-03-13T06:12:33;95407.72;;;10.34;44.45
3428;BME280;1727;42.624;23.406;2023-03-13T06:15:01;95406.66;;;10.37;44.90
3428;BME280;1727;42.624;23.406;2023-03-13T06:17:27;95404.88;;;10.37;45.11
3428;BME280;1727;42.624;23.406;2023-03-13T06:19:54;95409.44;;;10.58;45.16
3428;BME280;1727;42.624;23.406;2023-03-13T06:22:21;95404.09;;;10.70;43.81
3428;BME280;1727;42.624;23.406;2023-03-13T06:24:48;95408.41;;;10.82;44.21
3428;BME280;1727;42.624;23.406;2023-03-13T06:27:16;95412.22;;;10.90;43.24
3428;BME280;1727;42.624;23.406;2023-03-13T06:29:43;95409.13;;;10.84;42.88
3428;BME280;1727;42.624;23.406;2023-03-13T06:32:09;95412.38;;;9.72;44.23
3428;BME280;1727;42.624;23.406;2023-03-13T06:34:36;95409.00;;;9.46;46.83
3428;BME280;1727;42.624;23.406;2023-03-13T06:37:03;95417.59;;;9.48;46.63
3428;BME280;1727;42.624;23.406;2023-03-13T06:39:30;95412.34;;;9.96;45.31
3428;BME280;1727;42.624;23.406;2023-03-13T06:41:56;95409.84;;;9.94;45.12
3428;BME280;1727;42.624;23.406;2023-03-13T06:44:25;95393.66;;;10.35;45.13
3428;BME280;1727;42.624;23.406;2023-03-13T06:46:52;95393.13;;;10.19;44.93
3428;BME280;1727;42.624;23.406;2023-03-13T06:49:19;95387.16;;;10.17;44.71
3428;BME280;1727;42.624;23.406;2023-03-13T06:51:45;95383.16;;;10.35;43.49
3428;BME280;1727;42.624;23.406;2023-03-13T06:54:12;95383.38;;;10.21;43.18
3428;BME280;1727;42.624;23.406;2023-03-13T06:56:39;95383.09;;;10.13;44.25
3428;BME280;1727;42.624;23.406;2023-03-13T06:59:06;95387.69;;;10.22;44.62
3428;BME280;1727;42.624;23.406;2023-03-13T07:01:34;95386.94;;;10.20;42.68
3428;BME280;1727;42.624;23.406;2023-03-13T07:04:01;95386.84;;;9.86;43.50
3428;BME280;1727;42.624;23.406;2023-03-13T07:06:27;95380.47;;;9.54;44.27
3428;BME280;1727;42.624;23.406;2023-03-13T07:08:54;95385.53;;;9.20;44.89
3428;BME280;1727;42.624;23.406;2023-03-13T07:11:21;95373.78;;;9.50;45.86
3428;BME280;1727;42.624;23.406;2023-03-13T07:13:48;95377.72;;;9.79;45.24
3428;BME280;1727;42.624;23.406;2023-03-13T07:16:14;95381.25;;;9.67;44.75
3428;BME280;1727;42.624;23.406;2023-03-13T07:18:43;95385.19;;;9.61;44.68
3428;BME280;1727;42.624;23.406;2023-03-13T07:21:10;95376.81;;;9.32;45.92
3428;BME280;1727;42.624;23.406;2023-03-13T07:23:37;95392.94;;;9.03;45.81
3428;BME280;1727;42.624;23.406;2023-03-13T07:26:06;95381.31;;;8.94;46.77
3428;BME280;1727;42.624;23.406;2023-03-13T07:28:33;95376.56;;;9.12;46.48
3428;BME280;1727;42.624;23.406;2023-03-13T07:31:04;95376.31;;;9.27;46.18
3428;BME280;1727;42.624;23.406;2023-03-13T07:33:31;95386.25;;;9.22;45.64
3428;BME280;1727;42.624;23.406;2023-03-13T07:35:59;95378.56;;;8.95;45.83
3428;BME280;1727;42.624;23.406;2023-03-13T07:38:26;95377.97;;;9.28;46.90
3428;BME280;1727;42.624;23.406;2023-03-13T07:40:56;95376.63;;;9.47;46.05
3428;BME280;1727;42.624;23.406;2023-03-13T07:43:23;95387.34;;;9.07;46.94
3428;BME280;1727;42.624;23.406;2023-03-13T07:45:52;95374.94;;;8.98;47.21
3428;BME280;1727;42.624;23.406;2023-03-13T07:48:20;95377.41;;;9.12;47.57
3428;BME280;1727;42.624;23.406;2023-03-13T07:50:47;95384.44;;;9.36;48.92
3428;BME280;1727;42.624;23.406;2023-03-13T07:53:15;95380.91;;;9.24;48.89
3428;BME280;1727;42.624;23.406;2023-03-13T07:55:56;95379.72;;;9.04;48.65
3428;BME280;1727;42.624;23.406;2023-03-13T07:58:24;95384.56;;;8.85;49.64
3428;BME280;1727;42.624;23.406;2023-03-13T08:00:51;95388.78;;;8.62;50.13
3428;BME280;1727;42.624;23.406;2023-03-13T08:03:18;95383.22;;;8.66;50.40
3428;BME280;1727;42.624;23.406;2023-03-13T08:05:45;95374.09;;;8.85;50.38
3428;BME280;1727;42.624;23.406;2023-03-13T08:08:12;95368.66;;;8.88;50.72
3428;BME280;1727;42.624;23.406;2023-03-13T08:10:40;95370.38;;;8.51;51.77
3428;BME280;1727;42.624;23.406;2023-03-13T08:13:07;95365.81;;;8.91;51.50
3428;BME280;1727;42.624;23.406;2023-03-13T08:15:34;95355.28;;;9.16;50.05
3428;BME280;1727;42.624;23.406;2023-03-13T08:18:01;95354.34;;;9.41;49.51
3428;BME280;1727;42.624;23.406;2023-03-13T08:20:27;95358.56;;;9.07;49.98
3428;BME280;1727;42.624;23.406;2023-03-13T08:22:55;95352.09;;;9.00;51.12
3428;BME280;1727;42.624;23.406;2023-03-13T08:25:22;95355.13;;;8.94;50.85
3428;BME280;1727;42.624;23.406;2023-03-13T08:27:50;95359.69;;;8.66;50.98
3428;BME280;1727;42.624;23.406;2023-03-13T08:30:17;95355.53;;;8.51;50.72
3428;BME280;1727;42.624;23.406;2023-03-13T08:32:44;95361.50;;;8.53;50.25
3428;BME280;1727;42.624;23.406;2023-03-13T08:35:11;95353.66;;;8.53;52.20
3428;BME280;1727;42.624;23.406;2023-03-13T08:37:38;95362.25;;;8.43;51.62
3428;BME280;1727;42.624;23.406;2023-03-13T08:40:06;95364.44;;;8.49;52.54
3428;BME280;1727;42.624;23.406;2023-03-13T08:42:36;95371.09;;;8.65;52.30
3428;BME280;1727;42.624;23.406;2023-03-13T08:45:07;95371.09;;;8.65;50.98
3428;BME280;1727;42.624;23.406;2023-03-13T08:47:34;95369.88;;;8.95;50.60
3428;BME280;1727;42.624;23.406;2023-03-13T08:50:01;95377.13;;;8.91;51.74
3428;BME280;1727;42.624;23.406;2023-03-13T08:52:27;95376.41;;;8.89;50.56
3428;BME280;1727;42.624;23.406;2023-03-13T08:54:54;95366.63;;;9.04;49.82
3428;BME280;1727;42.624;23.406;2023-03-13T08:57:21;95363.47;;;9.12;50.09
3428;BME280;1727;42.624;23.406;2023-03-13T08:59:48;95347.44;;;9.16;49.13
3428;BME280;1727;42.624;23.406;2023-03-13T09:02:17;95352.88;;;9.13;49.99
3428;BME280;1727;42.624;23.406;2023-03-13T09:04:46;95357.06;;;9.16;50.22
3428;BME280;1727;42.624;23.406;2023-03-13T09:07:14;95358.81;;;9.28;50.58
3428;BME280;1727;42.624;23.406;2023-03-13T09:09:41;95356.13;;;9.41;49.13
3428;BME280;1727;42.624;23.406;2023-03-13T09:12:08;95353.44;;;9.53;50.25
3428;BME280;1727;42.624;23.406;2023-03-13T09:14:35;95340.06;;;9.69;48.87
3428;BME280;1727;42.624;23.406;2023-03-13T09:17:02;95343.34;;;9.84;48.01
3428;BME280;1727;42.624;23.406;2023-03-13T09:19:31;95338.91;;;9.49;49.49
3428;BME280;1727;42.624;23.406;2023-03-13T09:21:57;95343.16;;;9.39;48.36
3428;BME280;1727;42.624;23.406;2023-03-13T09:24:24;95337.34;;;9.47;48.87
3428;BME280;1727;42.624;23.406;2023-03-13T09:26:51;95331.47;;;9.67;49.21
3428;BME280;1727;42.624;23.406;2023-03-13T09:29:18;95335.78;;;9.79;49.18
3428;BME280;1727;42.624;23.406;2023-03-13T09:31:45;95335.88;;;10.02;49.28
3428;BME280;1727;42.624;23.406;2023-03-13T09:34:11;95336.94;;;9.99;47.13
3428;BME280;1727;42.624;23.406;2023-03-13T09:36:39;95327.25;;;9.88;47.90
3428;BME280;1727;42.624;23.406;2023-03-13T09:39:06;95339.44;;;10.01;48.12
3428;BME280;1727;42.624;23.406;2023-03-13T09:41:37;95344.56;;;10.02;47.08
3428;BME280;1727;42.624;23.406;2023-03-13T09:44:10;95346.03;;;9.82;47.88
3428;BME280;1727;42.624;23.406;2023-03-13T09:46:43;95344.25;;;9.83;48.32
3428;BME280;1727;42.624;23.406;2023-03-13T09:49:15;95332.75;;;9.97;47.36
3428;BME280;1727;42.624;23.406;2023-03-13T09:51:50;95345.16;;;10.06;48.25
3428;BME280;1727;42.624;23.406;2023-03-13T09:54:24;95350.53;;;10.04;47.71
3428;BME280;1727;42.624;23.406;2023-03-13T09:56:55;95341.09;;;10.02;47.43
3428;BME280;1727;42.624;23.406;2023-03-13T09:59:27;95337.16;;;9.96;48.37
3428;BME280;1727;42.624;23.406;2023-03-13T10:01:56;95340.63;;;9.97;46.77
3428;BME280;1727;42.624;23.406;2023-03-13T10:04:31;95340.53;;;10.09;47.57
3428;BME280;1727;42.624;23.406;2023-03-13T10:07:01;95337.09;;;9.74;47.23
3428;BME280;1727;42.624;23.406;2023-03-13T10:09:30;95330.31;;;9.82;47.78
3428;BME280;1727;42.624;23.406;2023-03-13T10:12:04;95318.94;;;10.06;48.98
3428;BME280;1727;42.624;23.406;2023-03-13T10:14:41;95319.31;;;10.01;48.04
3428;BME280;1727;42.624;23.406;2023-03-13T10:17:14;95313.69;;;10.06;47.33
3428;BME280;1727;42.624;23.406;2023-03-13T10:19:46;95311.31;;;9.91;47.56
3428;BME280;1727;42.624;23.406;2023-03-13T10:22:21;95303.81;;;9.98;46.95
3428;BME280;1727;42.624;23.406;2023-03-13T10:24:52;95302.84;;;9.88;46.78
3428;BME280;1727;42.624;23.406;2023-03-13T10:27:20;95304.88;;;9.96;47.23
3428;BME280;1727;42.624;23.406;2023-03-13T10:29:47;95285.09;;;10.03;48.27
3428;BME280;1727;42.624;23.406;2023-03-13T10:32:15;95281.22;;;9.62;47.58
3428;BME280;1727;42.624;23.406;2023-03-13T10:34:51;95281.00;;;9.76;47.95
3428;BME280;1727;42.624;23.406;2023-03-13T10:37:22;95278.53;;;9.86;47.71
3428;BME280;1727;42.624;23.406;2023-03-13T10:39:50;95271.47;;;9.75;48.67
3428;BME280;1727;42.624;23.406;2023-03-13T10:42:21;95268.53;;;9.91;48.79
3428;BME280;1727;42.624;23.406;2023-03-13T10:44:55;95266.50;;;9.94;48.67
3428;BME280;1727;42.624;23.406;2023-03-13T10:47:23;95265.56;;;10.07;49.66
3428;BME280;1727;42.624;23.406;2023-03-13T10:49:54;95256.03;;;10.06;49.83
3428;BME280;1727;42.624;23.406;2023-03-13T10:52:30;95240.75;;;10.11;49.88
3428;BME280;1727;42.624;23.406;2023-03-13T10:55:03;95243.34;;;9.77;49.78
3428;BME280;1727;42.624;23.406;2023-03-13T10:57:31;95239.88;;;9.54;50.55
3428;BME280;1727;42.624;23.406;2023-03-13T10:59:58;95238.56;;;9.60;49.94
3428;BME280;1727;42.624;23.406;2023-03-13T11:02:32;95244.06;;;9.68;50.09
3428;BME280;1727;42.624;23.406;2023-03-13T11:05:00;95236.44;;;9.76;50.37
3428;BME280;1727;42.624;23.406;2023-03-13T11:07:31;95232.06;;;9.88;50.27
3428;BME280;1727;42.624;23.406;2023-03-13T11:10:00;95223.38;;;9.99;49.95
3428;BME280;1727;42.624;23.406;2023-03-13T11:12:28;95224.69;;;10.15;48.60
3428;BME280;1727;42.624;23.406;2023-03-13T11:15:00;95217.22;;;10.22;48.84
3428;BME280;1727;42.624;23.406;2023-03-13T11:17:34;95216.84;;;10.27;48.88
3428;BME280;1727;42.624;23.406;2023-03-13T11:20:17;95210.63;;;10.16;48.37
3428;BME280;1727;42.624;23.406;2023-03-13T11:23:10;95212.69;;;10.24;49.71
3428;BME280;1727;42.624;23.406;2023-03-13T11:25:47;95210.03;;;10.35;48.53
3428;BME280;1727;42.624;23.406;2023-03-13T11:28:24;95202.41;;;10.32;48.56
3428;BME280;1727;42.624;23.406;2023-03-13T11:31:02;95187.63;;;10.42;48.43
3428;BME280;1727;42.624;23.406;2023-03-13T11:33:38;95192.00;;;10.53;49.34
3428;BME280;1727;42.624;23.406;2023-03-13T11:36:15;95189.75;;;10.37;47.53
3428;BME280;1727;42.624;23.406;2023-03-13T11:38:48;95187.00;;;10.50;48.41
3428;BME280;1727;42.624;23.406;2023-03-13T11:41:30;95186.91;;;10.51;48.47
3428;BME280;1727;42.624;23.406;2023-03-13T11:44:16;95178.78;;;10.54;46.96
3428;BME280;1727;42.624;23.406;2023-03-13T11:46:51;95181.03;;;10.59;48.19
3428;BME280;1727;42.624;23.406;2023-03-13T11:52:31;95165.34;;;10.69;48.38
3428;BME280;1727;42.624;23.406;2023-03-13T11:55:16;95154.59;;;10.83;47.35
3428;BME280;1727;42.624;23.406;2023-03-13T11:57:53;95152.50;;;10.98;47.55
3428;BME280;1727;42.624;23.406;2023-03-13T12:00:29;95152.31;;;11.10;46.30
3428;BME280;1727;42.624;23.406;2023-03-13T12:03:01;95149.16;;;11.28;46.09
3428;BME280;1727;42.624;23.406;2023-03-13T12:05:34;95148.53;;;11.24;45.80
3428;BME280;1727;42.624;23.406;2023-03-13T12:08:08;95141.00;;;11.10;45.99
3428;BME280;1727;42.624;23.406;2023-03-13T12:10:41;95132.78;;;11.24;46.52
3428;BME280;1727;42.624;23.406;2023-03-13T12:13:12;95135.88;;;11.29;45.70
3428;BME280;1727;42.624;23.406;2023-03-13T12:15:43;95132.28;;;11.30;45.68
3428;BME280;1727;42.624;23.406;2023-03-13T12:18:17;95130.69;;;11.39;45.90
3428;BME280;1727;42.624;23.406;2023-03-13T12:20:51;95129.75;;;11.49;45.77
3428;BME280;1727;42.624;23.406;2023-03-13T12:23:25;95129.91;;;11.27;45.82
3428;BME280;1727;42.624;23.406;2023-03-13T12:25:57;95126.25;;;11.18;45.62
3428;BME280;1727;42.624;23.406;2023-03-13T12:28:32;95113.69;;;11.22;47.30
3428;BME280;1727;42.624;23.406;2023-03-13T12:31:07;95108.81;;;11.38;47.50
3428;BME280;1727;42.624;23.406;2023-03-13T12:33:42;95108.03;;;11.47;46.99
3428;BME280;1727;42.624;23.406;2023-03-13T12:36:13;95111.22;;;11.51;44.98
3428;BME280;1727;42.624;23.406;2023-03-13T12:38:46;95105.28;;;11.49;44.02
3428;BME280;1727;42.624;23.406;2023-03-13T12:41:21;95102.13;;;11.55;45.77
3428;BME280;1727;42.624;23.406;2023-03-13T12:43:51;95108.75;;;11.49;45.33
3428;BME280;1727;42.624;23.406;2023-03-13T12:46:33;95102.59;;;11.60;44.74
3428;BME280;1727;42.624;23.406;2023-03-13T12:49:28;95110.84;;;11.56;44.14
3428;BME280;1727;42.624;23.406;2023-03-13T12:52:16;95097.53;;;11.47;45.59
3428;BME280;1727;42.624;23.406;2023-03-13T12:55:06;95102.59;;;11.60;46.07
3428;BME280;1727;42.624;23.406;2023-03-13T12:58:10;95105.91;;;11.62;43.77
3428;BME280;1727;42.624;23.406;2023-03-13T13:00:41;95109.78;;;11.58;43.69
3428;BME280;1727;42.624;23.406;2023-03-13T13:03:19;95103.72;;;11.67;44.88
3428;BME280;1727;42.624;23.406;2023-03-13T13:05:59;95109.53;;;11.71;44.36
3428;BME280;1727;42.624;23.406;2023-03-13T13:08:32;95113.91;;;11.82;45.43
3428;BME280;1727;42.624;23.406;2023-03-13T13:14:00;95107.31;;;11.66;43.20
3428;BME280;1727;42.624;23.406;2023-03-13T13:16:28;95113.13;;;11.70;42.62
3428;BME280;1727;42.624;23.406;2023-03-13T13:24:53;95113.63;;;11.85;43.37
3428;BME280;1727;42.624;23.406;2023-03-13T13:27:45;95107.19;;;11.68;42.91
3428;BME280;1727;42.624;23.406;2023-03-13T13:30:30;95105.81;;;11.73;42.93
3428;BME280;1727;42.624;23.406;2023-03-13T13:33:32;95096.34;;;11.82;42.91
3428;BME280;1727;42.624;23.406;2023-03-13T13:36:27;95093.00;;;11.80;41.81
3428;BME280;1727;42.624;23.406;2023-03-13T13:38:56;95093.22;;;11.67;41.92
3428;BME280;1727;42.624;23.406;2023-03-13T13:41:38;95090.88;;;11.74;41.65
3428;BME280;1727;42.624;23.406;2023-03-13T13:44:24;95087.94;;;11.67;41.94